sensor_id;sensor_type;location;lat;lon;timestamp;P1;durP1;ratioP1;P2;durP2;ratioP2
45466;SDS011;31212;49.734;8.490;2023-05-20T00:00:21;2.83;;;1.55;;
45466;SDS011;31212;49.734;8.490;2023-05-20T00:02:48;3.22;;;1.90;;
45466;SDS011;31212;49.734;8.490;2023-05-20T00:05:15;2.33;;;1.50;;
45466;SDS011;31212;49.734;8.490;2023-05-20T00:07:41;2.05;;;1.33;;
45466;SDS011;31212;49.734;8.490;2023-05-20T00:10:08;5.55;;;1.83;;
45466;SDS011;31212;49.734;8.490;2023-05-20T00:12:37;6.13;;;1.63;;
45466;SDS011;31212;49.734;8.490;2023-05-20T00:15:04;2.20;;;1.27;;
45466;SDS011;31212;49.734;8.490;2023-05-20T00:17:32;2.78;;;1.42;;
45466;SDS011;31212;49.734;8.490;2023-05-20T00:19:58;1.63;;;1.40;;
45466;SDS011;31212;49.734;8.490;2023-05-20T00:22:25;2.75;;;1.58;;
45466;SDS011;31212;49.734;8.490;2023-05-20T00:24:54;9.65;;;2.05;;
45466;SDS011;31212;49.734;8.490;2023-05-20T00:27:21;4.53;;;2.38;;
45466;SDS011;31212;49.734;8.490;2023-05-20T00:29:49;2.60;;;1.70;;
45466;SDS011;31212;49.734;8.490;2023-05-20T00:32:15;2.28;;;1.35;;
45466;SDS011;31212;49.734;8.490;2023-05-20T00:34:42;3.75;;;2.03;;
45466;SDS011;31212;49.734;8.490;2023-05-20T00:37:09;5.10;;;2.00;;
45466;SDS011;31212;49.734;8.490;2023-05-20T00:39:36;3.17;;;1.83;;
45466;SDS011;31212;49.734;8.490;2023-05-20T00:42:02;3.40;;;1.80;;
45466;SDS011;31212;49.734;8.490;2023-05-20T00:44:29;4.30;;;1.80;;
45466;SDS011;31212;49.734;8.490;2023-05-20T00:46:57;3.30;;;1.83;;
45466;SDS011;31212;49.734;8.490;2023-05-20T00:49:24;6.50;;;1.50;;
45466;SDS011;31212;49.734;8.490;2023-05-20T00:51:50;3.78;;;2.08;;
45466;SDS011;31212;49.734;8.490;2023-05-20T00:54:17;2.42;;;1.85;;
45466;SDS011;31212;49.734;8.490;2023-05-20T00:56:44;5.00;;;2.78;;
45466;SDS011;31212;49.734;8.490;2023-05-20T00:59:12;6.80;;;1.95;;
45466;SDS011;31212;49.734;8.490;2023-05-20T01:01:39;2.80;;;1.40;;
45466;SDS011;31212;49.734;8.490;2023-05-20T01:04:07;2.72;;;2.05;;
45466;SDS011;31212;49.734;8.490;2023-05-20T01:06:34;2.25;;;1.63;;
45466;SDS011;31212;49.734;8.490;2023-05-20T01:09:02;2.63;;;1.98;;
45466;SDS011;31212;49.734;8.490;2023-05-20T01:11:30;6.07;;;2.05;;
45466;SDS011;31212;49.734;8.490;2023-05-20T01:14:01;3.40;;;1.70;;
45466;SDS011;31212;49.734;8.490;2023-05-20T01:16:32;2.17;;;1.60;;
45466;SDS011;31212;49.734;8.490;2023-05-20T01:19:01;11.13;;;2.20;;
45466;SDS011;31212;49.734;8.490;2023-05-20T01:21:30;3.00;;;1.58;;
45466;SDS011;31212;49.734;8.490;2023-05-20T01:24:00;3.65;;;2.10;;
45466;SDS011;31212;49.734;8.490;2023-05-20T01:26:29;3.67;;;2.08;;
45466;SDS011;31212;49.734;8.490;2023-05-20T01:28:57;2.25;;;1.83;;
45466;SDS011;31212;49.734;8.490;2023-05-20T01:31:29;2.80;;;1.60;;
45466;SDS011;31212;49.734;8.490;2023-05-20T01:34:00;3.65;;;1.73;;
45466;SDS011;31212;49.734;8.490;2023-05-20T01:36:27;3.58;;;2.13;;
45466;SDS011;31212;49.734;8.490;2023-05-20T01:38:56;2.17;;;1.38;;
45466;SDS011;31212;49.734;8.490;2023-05-20T01:41:25;3.00;;;1.65;;
45466;SDS011;31212;49.734;8.490;2023-05-20T01:43:52;5.32;;;2.00;;
45466;SDS011;31212;49.734;8.490;2023-05-20T01:46:20;3.85;;;1.98;;
45466;SDS011;31212;49.734;8.490;2023-05-20T01:48:47;3.55;;;2.33;;
45466;SDS011;31212;49.734;8.490;2023-05-20T01:51:13;4.07;;;1.83;;
45466;SDS011;31212;49.734;8.490;2023-05-20T01:53:41;2.38;;;1.75;;
45466;SDS011;31212;49.734;8.490;2023-05-20T01:56:08;5.50;;;1.98;;
45466;SDS011;31212;49.734;8.490;2023-05-20T01:58:36;3.80;;;1.58;;
45466;SDS011;31212;49.734;8.490;2023-05-20T02:01:03;3.70;;;2.13;;
45466;SDS011;31212;49.734;8.490;2023-05-20T02:03:29;4.03;;;2.15;;
45466;SDS011;31212;49.734;8.490;2023-05-20T02:05:56;3.63;;;1.98;;
45466;SDS011;31212;49.734;8.490;2023-05-20T02:08:22;2.95;;;1.88;;
45466;SDS011;31212;49.734;8.490;2023-05-20T02:10:49;3.97;;;2.42;;
45466;SDS011;31212;49.734;8.490;2023-05-20T02:13:16;2.40;;;1.70;;
45466;SDS011;31212;49.734;8.490;2023-05-20T02:15:43;10.20;;;2.78;;
45466;SDS011;31212;49.734;8.490;2023-05-20T02:18:10;2.30;;;1.88;;
45466;SDS011;31212;49.734;8.490;2023-05-20T02:20:38;2.67;;;1.98;;
45466;SDS011;31212;49.734;8.490;2023-05-20T02:23:05;2.65;;;1.88;;
45466;SDS011;31212;49.734;8.490;2023-05-20T02:25:32;4.15;;;2.08;;
45466;SDS011;31212;49.734;8.490;2023-05-20T02:27:59;2.42;;;2.00;;
45466;SDS011;31212;49.734;8.490;2023-05-20T02:30:26;3.90;;;2.05;;
45466;SDS011;31212;49.734;8.490;2023-05-20T02:32:54;3.47;;;1.85;;
45466;SDS011;31212;49.734;8.490;2023-05-20T02:35:22;4.32;;;2.08;;
45466;SDS011;31212;49.734;8.490;2023-05-20T02:37:49;2.50;;;1.95;;
45466;SDS011;31212;49.734;8.490;2023-05-20T02:40:15;3.53;;;1.92;;
45466;SDS011;31212;49.734;8.490;2023-05-20T02:42:42;4.03;;;2.00;;
45466;SDS011;31212;49.734;8.490;2023-05-20T02:45:08;5.30;;;2.17;;
45466;SDS011;31212;49.734;8.490;2023-05-20T02:47:37;4.45;;;2.00;;
45466;SDS011;31212;49.734;8.490;2023-05-20T02:50:06;3.08;;;1.80;;
45466;SDS011;31212;49.734;8.490;2023-05-20T02:52:33;6.88;;;2.00;;
45466;SDS011;31212;49.734;8.490;2023-05-20T02:55:00;4.22;;;2.22;;
45466;SDS011;31212;49.734;8.490;2023-05-20T02:57:27;3.90;;;2.03;;
45466;SDS011;31212;49.734;8.490;2023-05-20T02:59:54;5.72;;;2.30;;
45466;SDS011;31212;49.734;8.490;2023-05-20T03:02:21;4.30;;;2.03;;
45466;SDS011;31212;49.734;8.490;2023-05-20T03:04:49;4.85;;;2.25;;
45466;SDS011;31212;49.734;8.490;2023-05-20T03:07:20;2.63;;;1.90;;
45466;SDS011;31212;49.734;8.490;2023-05-20T03:09:47;3.85;;;2.35;;
45466;SDS011;31212;49.734;8.490;2023-05-20T03:12:14;3.63;;;2.08;;
45466;SDS011;31212;49.734;8.490;2023-05-20T03:14:40;3.25;;;2.28;;
45466;SDS011;31212;49.734;8.490;2023-05-20T03:17:07;4.22;;;2.00;;
45466;SDS011;31212;49.734;8.490;2023-05-20T03:19:34;3.08;;;2.13;;
45466;SDS011;31212;49.734;8.490;2023-05-20T03:22:03;2.88;;;2.20;;
45466;SDS011;31212;49.734;8.490;2023-05-20T03:24:32;3.50;;;2.42;;
45466;SDS011;31212;49.734;8.490;2023-05-20T03:26:59;3.72;;;2.28;;
45466;SDS011;31212;49.734;8.490;2023-05-20T03:29:26;3.20;;;2.10;;
45466;SDS011;31212;49.734;8.490;2023-05-20T03:31:53;9.27;;;2.03;;
45466;SDS011;31212;49.734;8.490;2023-05-20T03:34:19;4.40;;;2.10;;
45466;SDS011;31212;49.734;8.490;2023-05-20T03:36:49;5.18;;;1.92;;
45466;SDS011;31212;49.734;8.490;2023-05-20T03:39:16;2.72;;;2.17;;
45466;SDS011;31212;49.734;8.490;2023-05-20T03:41:45;7.97;;;2.42;;
45466;SDS011;31212;49.734;8.490;2023-05-20T03:44:12;6.18;;;2.85;;
45466;SDS011;31212;49.734;8.490;2023-05-20T03:46:39;4.18;;;2.30;;
45466;SDS011;31212;49.734;8.490;2023-05-20T03:49:06;3.38;;;2.42;;
45466;SDS011;31212;49.734;8.490;2023-05-20T03:51:32;3.45;;;2.17;;
45466;SDS011;31212;49.734;8.490;2023-05-20T03:54:05;3.63;;;1.92;;
45466;SDS011;31212;49.734;8.490;2023-05-20T03:56:32;3.80;;;2.30;;
45466;SDS011;31212;49.734;8.490;2023-05-20T03:58:59;3.97;;;2.42;;
45466;SDS011;31212;49.734;8.490;2023-05-20T04:01:26;6.93;;;2.00;;
45466;SDS011;31212;49.734;8.490;2023-05-20T04:03:53;3.22;;;2.00;;
45466;SDS011;31212;49.734;8.490;2023-05-20T04:06:19;2.33;;;1.83;;
45466;SDS011;31212;49.734;8.490;2023-05-20T04:08:48;4.90;;;2.47;;
45466;SDS011;31212;49.734;8.490;2023-05-20T04:11:19;2.85;;;1.98;;
45466;SDS011;31212;49.734;8.490;2023-05-20T04:13:45;2.85;;;2.35;;
45466;SDS011;31212;49.734;8.490;2023-05-20T04:16:13;3.22;;;2.35;;
45466;SDS011;31212;49.734;8.490;2023-05-20T04:18:40;2.92;;;2.20;;
45466;SDS011;31212;49.734;8.490;2023-05-20T04:21:06;5.65;;;2.13;;
45466;SDS011;31212;49.734;8.490;2023-05-20T04:23:33;2.45;;;2.25;;
45466;SDS011;31212;49.734;8.490;2023-05-20T04:26:00;3.22;;;1.90;;
45466;SDS011;31212;49.734;8.490;2023-05-20T04:28:30;3.67;;;2.30;;
45466;SDS011;31212;49.734;8.490;2023-05-20T04:30:57;3.63;;;1.92;;
45466;SDS011;31212;49.734;8.490;2023-05-20T04:33:26;8.15;;;2.28;;
45466;SDS011;31212;49.734;8.490;2023-05-20T04:35:52;2.55;;;1.73;;
45466;SDS011;31212;49.734;8.490;2023-05-20T04:38:23;1.95;;;1.63;;
45466;SDS011;31212;49.734;8.490;2023-05-20T04:40:54;3.17;;;2.20;;
45466;SDS011;31212;49.734;8.490;2023-05-20T04:43:22;6.75;;;2.65;;
45466;SDS011;31212;49.734;8.490;2023-05-20T04:45:49;3.08;;;2.10;;
45466;SDS011;31212;49.734;8.490;2023-05-20T04:48:17;3.85;;;2.22;;
45466;SDS011;31212;49.734;8.490;2023-05-20T04:50:45;2.83;;;2.15;;
45466;SDS011;31212;49.734;8.490;2023-05-20T04:53:12;2.40;;;2.03;;
45466;SDS011;31212;49.734;8.490;2023-05-20T04:55:39;3.13;;;1.58;;
45466;SDS011;31212;49.734;8.490;2023-05-20T04:58:05;3.75;;;2.53;;
45466;SDS011;31212;49.734;8.490;2023-05-20T05:00:39;5.70;;;2.47;;
45466;SDS011;31212;49.734;8.490;2023-05-20T05:03:06;3.65;;;2.25;;
45466;SDS011;31212;49.734;8.490;2023-05-20T05:05:33;5.28;;;2.72;;
45466;SDS011;31212;49.734;8.490;2023-05-20T05:08:01;4.00;;;2.42;;
45466;SDS011;31212;49.734;8.490;2023-05-20T05:10:28;5.07;;;2.30;;
45466;SDS011;31212;49.734;8.490;2023-05-20T05:12:55;3.85;;;2.13;;
45466;SDS011;31212;49.734;8.490;2023-05-20T05:15:21;2.67;;;2.30;;
45466;SDS011;31212;49.734;8.490;2023-05-20T05:17:48;3.50;;;1.88;;
45466;SDS011;31212;49.734;8.490;2023-05-20T05:20:15;4.28;;;2.20;;
45466;SDS011;31212;49.734;8.490;2023-05-20T05:22:41;2.47;;;1.77;;
45466;SDS011;31212;49.734;8.490;2023-05-20T05:25:10;5.60;;;2.28;;
45466;SDS011;31212;49.734;8.490;2023-05-20T05:27:37;3.97;;;1.83;;
45466;SDS011;31212;49.734;8.490;2023-05-20T05:30:05;7.60;;;4.20;;
45466;SDS011;31212;49.734;8.490;2023-05-20T05:32:33;4.80;;;2.65;;
45466;SDS011;31212;49.734;8.490;2023-05-20T05:35:00;3.00;;;2.05;;
45466;SDS011;31212;49.734;8.490;2023-05-20T05:37:27;3.55;;;2.17;;
45466;SDS011;31212;49.734;8.490;2023-05-20T05:39:53;3.47;;;2.08;;
45466;SDS011;31212;49.734;8.490;2023-05-20T05:42:21;7.07;;;2.45;;
45466;SDS011;31212;49.734;8.490;2023-05-20T05:44:49;4.25;;;2.35;;
45466;SDS011;31212;49.734;8.490;2023-05-20T05:47:16;2.38;;;1.92;;
45466;SDS011;31212;49.734;8.490;2023-05-20T05:49:43;6.47;;;2.70;;
45466;SDS011;31212;49.734;8.490;2023-05-20T05:52:09;3.97;;;2.65;;
45466;SDS011;31212;49.734;8.490;2023-05-20T05:54:36;4.20;;;2.45;;
45466;SDS011;31212;49.734;8.490;2023-05-20T05:57:03;4.65;;;2.67;;
45466;SDS011;31212;49.734;8.490;2023-05-20T05:59:35;4.30;;;3.15;;
45466;SDS011;31212;49.734;8.490;2023-05-20T06:02:01;11.70;;;2.97;;
45466;SDS011;31212;49.734;8.490;2023-05-20T06:04:28;5.03;;;1.98;;
45466;SDS011;31212;49.734;8.490;2023-05-20T06:06:56;4.47;;;2.30;;
45466;SDS011;31212;49.734;8.490;2023-05-20T06:09:22;3.78;;;2.47;;
45466;SDS011;31212;49.734;8.490;2023-05-20T06:11:50;5.65;;;2.20;;
45466;SDS011;31212;49.734;8.490;2023-05-20T06:14:17;3.60;;;2.13;;
45466;SDS011;31212;49.734;8.490;2023-05-20T06:16:45;4.90;;;2.60;;
45466;SDS011;31212;49.734;8.490;2023-05-20T06:19:11;3.63;;;2.20;;
45466;SDS011;31212;49.734;8.490;2023-05-20T06:21:38;4.55;;;2.70;;
45466;SDS011;31212;49.734;8.490;2023-05-20T06:24:04;3.08;;;2.65;;
45466;SDS011;31212;49.734;8.490;2023-05-20T06:26:34;3.78;;;2.38;;
45466;SDS011;31212;49.734;8.490;2023-05-20T06:29:00;3.08;;;2.30;;
45466;SDS011;31212;49.734;8.490;2023-05-20T06:31:28;3.78;;;2.45;;
45466;SDS011;31212;49.734;8.490;2023-05-20T06:33:57;7.15;;;2.85;;
45466;SDS011;31212;49.734;8.490;2023-05-20T06:36:26;3.28;;;2.40;;
45466;SDS011;31212;49.734;8.490;2023-05-20T06:38:53;7.22;;;2.78;;
45466;SDS011;31212;49.734;8.490;2023-05-20T06:41:19;5.15;;;2.75;;
45466;SDS011;31212;49.734;8.490;2023-05-20T06:43:49;4.45;;;2.30;;
45466;SDS011;31212;49.734;8.490;2023-05-20T06:46:47;4.32;;;2.53;;
45466;SDS011;31212;49.734;8.490;2023-05-20T06:49:15;6.55;;;2.33;;
45466;SDS011;31212;49.734;8.490;2023-05-20T06:51:43;3.22;;;2.20;;
45466;SDS011;31212;49.734;8.490;2023-05-20T06:54:10;4.03;;;2.35;;
45466;SDS011;31212;49.734;8.490;2023-05-20T06:56:36;5.20;;;2.55;;
45466;SDS011;31212;49.734;8.490;2023-05-20T06:59:03;3.53;;;2.50;;
45466;SDS011;31212;49.734;8.490;2023-05-20T07:01:32;3.85;;;2.53;;
45466;SDS011;31212;49.734;8.490;2023-05-20T07:04:00;4.32;;;2.45;;
45466;SDS011;31212;49.734;8.490;2023-05-20T07:06:29;7.40;;;2.50;;
45466;SDS011;31212;49.734;8.490;2023-05-20T07:08:56;3.90;;;2.50;;
45466;SDS011;31212;49.734;8.490;2023-05-20T07:11:24;4.93;;;2.92;;
45466;SDS011;31212;49.734;8.490;2023-05-20T07:13:50;3.70;;;2.08;;
45466;SDS011;31212;49.734;8.490;2023-05-20T07:16:17;4.35;;;2.58;;
45466;SDS011;31212;49.734;8.490;2023-05-20T07:18:51;2.95;;;2.20;;
45466;SDS011;31212;49.734;8.490;2023-05-20T07:21:17;4.60;;;2.63;;
45466;SDS011;31212;49.734;8.490;2023-05-20T07:23:54;5.28;;;2.42;;
45466;SDS011;31212;49.734;8.490;2023-05-20T07:26:21;6.18;;;2.45;;
45466;SDS011;31212;49.734;8.490;2023-05-20T07:28:48;4.90;;;2.45;;
45466;SDS011;31212;49.734;8.490;2023-05-20T07:31:15;3.33;;;2.20;;
45466;SDS011;31212;49.734;8.490;2023-05-20T07:33:43;4.82;;;2.67;;
45466;SDS011;31212;49.734;8.490;2023-05-20T07:36:10;5.70;;;3.47;;
45466;SDS011;31212;49.734;8.490;2023-05-20T07:38:38;6.45;;;3.63;;
45466;SDS011;31212;49.734;8.490;2023-05-20T07:41:08;3.50;;;2.42;;
45466;SDS011;31212;49.734;8.490;2023-05-20T07:43:35;5.40;;;2.78;;
45466;SDS011;31212;49.734;8.490;2023-05-20T07:46:02;8.77;;;3.03;;
45466;SDS011;31212;49.734;8.490;2023-05-20T07:48:28;5.28;;;2.30;;
45466;SDS011;31212;49.734;8.490;2023-05-20T07:50:55;4.97;;;2.53;;
45466;SDS011;31212;49.734;8.490;2023-05-20T07:53:23;4.13;;;2.90;;
45466;SDS011;31212;49.734;8.490;2023-05-20T07:55:50;3.20;;;2.47;;
45466;SDS011;31212;49.734;8.490;2023-05-20T07:58:18;7.57;;;2.92;;
45466;SDS011;31212;49.734;8.490;2023-05-20T08:00:44;5.05;;;3.28;;
45466;SDS011;31212;49.734;8.490;2023-05-20T08:03:11;2.72;;;2.15;;
45466;SDS011;31212;49.734;8.490;2023-05-20T08:06:05;4.30;;;2.47;;
45466;SDS011;31212;49.734;8.490;2023-05-20T08:08:32;3.42;;;2.42;;
45466;SDS011;31212;49.734;8.490;2023-05-20T08:11:05;14.30;;;3.40;;
45466;SDS011;31212;49.734;8.490;2023-05-20T08:13:33;6.85;;;3.13;;
45466;SDS011;31212;49.734;8.490;2023-05-20T08:16:00;4.53;;;2.90;;
45466;SDS011;31212;49.734;8.490;2023-05-20T08:18:28;4.47;;;3.00;;
45466;SDS011;31212;49.734;8.490;2023-05-20T08:20:55;8.10;;;2.53;;
45466;SDS011;31212;49.734;8.490;2023-05-20T08:23:29;7.05;;;2.65;;
45466;SDS011;31212;49.734;8.490;2023-05-20T08:25:56;4.57;;;3.00;;
45466;SDS011;31212;49.734;8.490;2023-05-20T08:28:27;6.22;;;2.45;;
45466;SDS011;31212;49.734;8.490;2023-05-20T08:30:55;5.88;;;2.97;;
45466;SDS011;31212;49.734;8.490;2023-05-20T08:33:23;6.72;;;2.50;;
45466;SDS011;31212;49.734;8.490;2023-05-20T08:35:49;5.38;;;2.58;;
45466;SDS011;31212;49.734;8.490;2023-05-20T08:38:16;7.57;;;2.85;;
45466;SDS011;31212;49.734;8.490;2023-05-20T08:40:43;4.00;;;2.28;;
45466;SDS011;31212;49.734;8.490;2023-05-20T08:43:10;2.88;;;2.03;;
45466;SDS011;31212;49.734;8.490;2023-05-20T08:45:37;4.25;;;2.60;;
45466;SDS011;31212;49.734;8.490;2023-05-20T08:48:10;3.33;;;2.40;;
45466;SDS011;31212;49.734;8.490;2023-05-20T08:50:37;2.90;;;2.20;;
45466;SDS011;31212;49.734;8.490;2023-05-20T08:53:04;3.17;;;2.17;;
45466;SDS011;31212;49.734;8.490;2023-05-20T08:55:32;3.38;;;2.67;;
45466;SDS011;31212;49.734;8.490;2023-05-20T08:58:03;6.15;;;2.75;;
45466;SDS011;31212;49.734;8.490;2023-05-20T09:00:29;6.03;;;2.67;;
45466;SDS011;31212;49.734;8.490;2023-05-20T09:02:57;4.10;;;3.03;;
45466;SDS011;31212;49.734;8.490;2023-05-20T09:05:26;5.35;;;3.30;;
45466;SDS011;31212;49.734;8.490;2023-05-20T09:08:02;5.18;;;3.55;;
45466;SDS011;31212;49.734;8.490;2023-05-20T09:10:30;5.43;;;2.80;;
45466;SDS011;31212;49.734;8.490;2023-05-20T09:12:58;9.88;;;3.50;;
45466;SDS011;31212;49.734;8.490;2023-05-20T09:15:25;3.65;;;2.92;;
45466;SDS011;31212;49.734;8.490;2023-05-20T09:17:52;6.60;;;3.55;;
45466;SDS011;31212;49.734;8.490;2023-05-20T09:20:20;6.15;;;3.20;;
45466;SDS011;31212;49.734;8.490;2023-05-20T09:22:50;4.70;;;3.05;;
45466;SDS011;31212;49.734;8.490;2023-05-20T09:25:18;3.65;;;2.97;;
45466;SDS011;31212;49.734;8.490;2023-05-20T09:27:45;8.82;;;3.80;;
45466;SDS011;31212;49.734;8.490;2023-05-20T09:30:12;6.05;;;3.08;;
45466;SDS011;31212;49.734;8.490;2023-05-20T09:32:38;4.43;;;2.95;;
45466;SDS011;31212;49.734;8.490;2023-05-20T09:35:05;14.82;;;2.95;;
45466;SDS011;31212;49.734;8.490;2023-05-20T09:37:32;5.65;;;2.88;;
45466;SDS011;31212;49.734;8.490;2023-05-20T09:40:03;5.28;;;3.35;;
45466;SDS011;31212;49.734;8.490;2023-05-20T09:42:34;12.88;;;3.25;;
45466;SDS011;31212;49.734;8.490;2023-05-20T09:45:06;6.00;;;3.30;;
45466;SDS011;31212;49.734;8.490;2023-05-20T09:47:34;4.93;;;3.53;;
45466;SDS011;31212;49.734;8.490;2023-05-20T09:50:04;5.18;;;2.80;;
45466;SDS011;31212;49.734;8.490;2023-05-20T09:52:33;4.05;;;2.85;;
45466;SDS011;31212;49.734;8.490;2023-05-20T09:55:02;6.13;;;3.22;;
45466;SDS011;31212;49.734;8.490;2023-05-20T09:57:31;4.50;;;2.78;;
45466;SDS011;31212;49.734;8.490;2023-05-20T09:59:59;4.43;;;3.20;;
45466;SDS011;31212;49.734;8.490;2023-05-20T10:02:37;5.40;;;3.40;;
45466;SDS011;31212;49.734;8.490;2023-05-20T10:05:10;4.05;;;2.92;;
45466;SDS011;31212;49.734;8.490;2023-05-20T10:10:40;3.63;;;2.58;;
45466;SDS011;31212;49.734;8.490;2023-05-20T10:13:15;5.40;;;3.17;;
45466;SDS011;31212;49.734;8.490;2023-05-20T10:15:52;6.50;;;3.20;;
45466;SDS011;31212;49.734;8.490;2023-05-20T10:18:28;4.45;;;2.80;;
45466;SDS011;31212;49.734;8.490;2023-05-20T10:21:13;4.35;;;3.10;;
45466;SDS011;31212;49.734;8.490;2023-05-20T10:23:41;4.45;;;3.33;;
45466;SDS011;31212;49.734;8.490;2023-05-20T10:26:09;4.15;;;3.00;;
45466;SDS011;31212;49.734;8.490;2023-05-20T10:28:36;5.82;;;3.40;;
45466;SDS011;31212;49.734;8.490;2023-05-20T10:31:13;5.38;;;3.38;;
45466;SDS011;31212;49.734;8.490;2023-05-20T10:33:41;6.28;;;3.35;;
45466;SDS011;31212;49.734;8.490;2023-05-20T10:36:08;3.95;;;2.83;;
45466;SDS011;31212;49.734;8.490;2023-05-20T10:38:35;4.80;;;3.25;;
45466;SDS011;31212;49.734;8.490;2023-05-20T10:41:06;4.07;;;3.20;;
45466;SDS011;31212;49.734;8.490;2023-05-20T10:43:35;3.13;;;2.60;;
45466;SDS011;31212;49.734;8.490;2023-05-20T10:46:02;4.10;;;3.00;;
45466;SDS011;31212;49.734;8.490;2023-05-20T10:48:29;4.10;;;3.22;;
45466;SDS011;31212;49.734;8.490;2023-05-20T10:50:57;4.70;;;3.50;;
45466;SDS011;31212;49.734;8.490;2023-05-20T10:53:27;3.58;;;2.47;;
45466;SDS011;31212;49.734;8.490;2023-05-20T10:55:56;4.22;;;3.10;;
45466;SDS011;31212;49.734;8.490;2023-05-20T10:58:23;6.25;;;3.42;;
45466;SDS011;31212;49.734;8.490;2023-05-20T11:00:51;4.80;;;3.15;;
45466;SDS011;31212;49.734;8.490;2023-05-20T11:03:20;4.90;;;3.42;;
45466;SDS011;31212;49.734;8.490;2023-05-20T11:05:47;9.50;;;3.47;;
45466;SDS011;31212;49.734;8.490;2023-05-20T11:08:14;4.88;;;3.38;;
45466;SDS011;31212;49.734;8.490;2023-05-20T11:10:41;6.93;;;3.65;;
45466;SDS011;31212;49.734;8.490;2023-05-20T11:13:11;11.95;;;3.63;;
45466;SDS011;31212;49.734;8.490;2023-05-20T11:15:39;6.00;;;3.80;;
45466;SDS011;31212;49.734;8.490;2023-05-20T11:18:09;5.95;;;3.75;;
45466;SDS011;31212;49.734;8.490;2023-05-20T11:20:37;7.35;;;3.80;;
45466;SDS011;31212;49.734;8.490;2023-05-20T11:23:04;4.45;;;3.03;;
45466;SDS011;31212;49.734;8.490;2023-05-20T11:25:31;4.38;;;3.15;;
45466;SDS011;31212;49.734;8.490;2023-05-20T11:27:58;5.30;;;3.80;;
45466;SDS011;31212;49.734;8.490;2023-05-20T11:30:24;4.75;;;3.33;;
45466;SDS011;31212;49.734;8.490;2023-05-20T11:32:59;5.25;;;3.63;;
45466;SDS011;31212;49.734;8.490;2023-05-20T11:35:27;7.20;;;4.50;;
45466;SDS011;31212;49.734;8.490;2023-05-20T11:38:00;5.25;;;3.60;;
45466;SDS011;31212;49.734;8.490;2023-05-20T11:40:28;6.93;;;3.42;;
45466;SDS011;31212;49.734;8.490;2023-05-20T11:42:57;10.90;;;3.88;;
45466;SDS011;31212;49.734;8.490;2023-05-20T11:45:24;4.47;;;3.38;;
45466;SDS011;31212;49.734;8.490;2023-05-20T11:48:00;5.53;;;3.55;;
45466;SDS011;31212;49.734;8.490;2023-05-20T11:50:28;4.97;;;3.22;;
45466;SDS011;31212;49.734;8.490;2023-05-20T11:53:01;4.80;;;3.42;;
45466;SDS011;31212;49.734;8.490;2023-05-20T11:55:30;6.15;;;3.78;;
45466;SDS011;31212;49.734;8.490;2023-05-20T11:57:57;7.47;;;3.60;;
45466;SDS011;31212;49.734;8.490;2023-05-20T12:00:24;11.43;;;4.20;;
45466;SDS011;31212;49.734;8.490;2023-05-20T12:02:50;22.48;;;5.00;;
45466;SDS011;31212;49.734;8.490;2023-05-20T12:05:19;5.35;;;3.67;;
45466;SDS011;31212;49.734;8.490;2023-05-20T12:07:45;5.03;;;3.97;;
45466;SDS011;31212;49.734;8.490;2023-05-20T12:10:12;9.88;;;4.43;;
45466;SDS011;31212;49.734;8.490;2023-05-20T12:12:39;15.50;;;4.30;;
45466;SDS011;31212;49.734;8.490;2023-05-20T12:15:05;7.88;;;3.58;;
45466;SDS011;31212;49.734;8.490;2023-05-20T12:17:42;7.25;;;3.85;;
45466;SDS011;31212;49.734;8.490;2023-05-20T12:20:11;17.55;;;4.07;;
45466;SDS011;31212;49.734;8.490;2023-05-20T12:22:40;13.57;;;3.67;;
45466;SDS011;31212;49.734;8.490;2023-05-20T12:25:08;10.13;;;4.07;;
45466;SDS011;31212;49.734;8.490;2023-05-20T12:27:36;7.30;;;4.40;;
45466;SDS011;31212;49.734;8.490;2023-05-20T12:30:02;7.93;;;3.95;;
45466;SDS011;31212;49.734;8.490;2023-05-20T12:32:30;6.13;;;4.45;;
45466;SDS011;31212;49.734;8.490;2023-05-20T12:34:56;11.68;;;4.05;;
45466;SDS011;31212;49.734;8.490;2023-05-20T12:37:23;5.72;;;3.88;;
45466;SDS011;31212;49.734;8.490;2023-05-20T12:39:51;5.57;;;3.55;;
45466;SDS011;31212;49.734;8.490;2023-05-20T12:42:18;4.90;;;3.53;;
45466;SDS011;31212;49.734;8.490;2023-05-20T12:44:44;4.20;;;3.05;;
45466;SDS011;31212;49.734;8.490;2023-05-20T12:47:11;5.78;;;3.85;;
45466;SDS011;31212;49.734;8.490;2023-05-20T12:49:37;8.55;;;4.18;;
45466;SDS011;31212;49.734;8.490;2023-05-20T12:52:04;8.07;;;4.00;;
45466;SDS011;31212;49.734;8.490;2023-05-20T12:54:31;23.27;;;4.03;;
45466;SDS011;31212;49.734;8.490;2023-05-20T12:56:59;7.78;;;3.42;;
45466;SDS011;31212;49.734;8.490;2023-05-20T12:59:27;19.05;;;4.43;;
45466;SDS011;31212;49.734;8.490;2023-05-20T13:01:53;6.10;;;3.50;;
45466;SDS011;31212;49.734;8.490;2023-05-20T13:04:20;5.30;;;4.00;;
45466;SDS011;31212;49.734;8.490;2023-05-20T13:06:47;5.80;;;3.50;;
45466;SDS011;31212;49.734;8.490;2023-05-20T13:09:13;7.18;;;4.28;;
45466;SDS011;31212;49.734;8.490;2023-05-20T13:11:40;7.05;;;4.05;;
45466;SDS011;31212;49.734;8.490;2023-05-20T13:14:08;5.28;;;4.05;;
45466;SDS011;31212;49.734;8.490;2023-05-20T13:16:35;7.53;;;4.13;;
45466;SDS011;31212;49.734;8.490;2023-05-20T13:19:02;9.63;;;4.45;;
45466;SDS011;31212;49.734;8.490;2023-05-20T13:21:29;13.07;;;4.32;;
45466;SDS011;31212;49.734;8.490;2023-05-20T13:23:55;5.25;;;3.97;;
45466;SDS011;31212;49.734;8.490;2023-05-20T13:26:22;5.80;;;4.35;;
45466;SDS011;31212;49.734;8.490;2023-05-20T13:28:49;6.78;;;4.20;;
45466;SDS011;31212;49.734;8.490;2023-05-20T13:31:17;6.50;;;4.03;;
45466;SDS011;31212;49.734;8.490;2023-05-20T13:33:43;7.55;;;4.55;;
45466;SDS011;31212;49.734;8.490;2023-05-20T13:36:11;5.72;;;4.32;;
45466;SDS011;31212;49.734;8.490;2023-05-20T13:38:38;5.15;;;3.65;;
45466;SDS011;31212;49.734;8.490;2023-05-20T13:41:04;6.43;;;4.40;;
45466;SDS011;31212;49.734;8.490;2023-05-20T13:43:31;5.72;;;4.25;;
45466;SDS011;31212;49.734;8.490;2023-05-20T13:45:57;5.20;;;3.25;;
45466;SDS011;31212;49.734;8.490;2023-05-20T13:48:25;5.35;;;3.78;;
45466;SDS011;31212;49.734;8.490;2023-05-20T13:50:53;8.15;;;4.63;;
45466;SDS011;31212;49.734;8.490;2023-05-20T13:53:19;6.03;;;4.15;;
45466;SDS011;31212;49.734;8.490;2023-05-20T13:55:46;6.43;;;4.32;;
45466;SDS011;31212;49.734;8.490;2023-05-20T13:58:13;9.32;;;4.88;;
45466;SDS011;31212;49.734;8.490;2023-05-20T14:00:39;7.20;;;4.38;;
45466;SDS011;31212;49.734;8.490;2023-05-20T14:03:06;5.95;;;3.95;;
45466;SDS011;31212;49.734;8.490;2023-05-20T14:05:35;7.03;;;4.45;;
45466;SDS011;31212;49.734;8.490;2023-05-20T14:08:02;8.02;;;4.97;;
45466;SDS011;31212;49.734;8.490;2023-05-20T14:10:29;7.90;;;4.00;;
45466;SDS011;31212;49.734;8.490;2023-05-20T14:12:56;6.00;;;3.63;;
45466;SDS011;31212;49.734;8.490;2023-05-20T14:15:26;7.15;;;4.30;;
45466;SDS011;31212;49.734;8.490;2023-05-20T14:17:54;7.05;;;4.93;;
45466;SDS011;31212;49.734;8.490;2023-05-20T14:20:21;9.35;;;4.22;;
45466;SDS011;31212;49.734;8.490;2023-05-20T14:22:50;6.38;;;4.45;;
45466;SDS011;31212;49.734;8.490;2023-05-20T14:25:17;10.93;;;5.15;;
45466;SDS011;31212;49.734;8.490;2023-05-20T14:27:44;9.77;;;4.82;;
45466;SDS011;31212;49.734;8.490;2023-05-20T14:30:11;6.03;;;4.28;;
45466;SDS011;31212;49.734;8.490;2023-05-20T14:32:37;8.02;;;4.05;;
45466;SDS011;31212;49.734;8.490;2023-05-20T14:35:05;4.65;;;3.58;;
45466;SDS011;31212;49.734;8.490;2023-05-20T14:37:32;13.00;;;4.43;;
45466;SDS011;31212;49.734;8.490;2023-05-20T14:40:00;7.63;;;4.07;;
45466;SDS011;31212;49.734;8.490;2023-05-20T14:42:27;5.20;;;4.20;;
45466;SDS011;31212;49.734;8.490;2023-05-20T14:44:53;7.60;;;4.28;;
45466;SDS011;31212;49.734;8.490;2023-05-20T14:47:20;8.88;;;5.15;;
45466;SDS011;31212;49.734;8.490;2023-05-20T14:49:46;5.80;;;3.92;;
45466;SDS011;31212;49.734;8.490;2023-05-20T14:52:14;8.00;;;4.70;;
45466;SDS011;31212;49.734;8.490;2023-05-20T14:54:40;10.55;;;4.72;;